sensor_id;sensor_type;location;lat;lon;timestamp;P1;durP1;ratioP1;P2;durP2;ratioP2
57057;SDS011;55017;52.848;6.748;2022-11-15T00:00:32;148.05;;;141.55;;
57057;SDS011;55017;52.848;6.748;2022-11-15T00:02:58;146.15;;;139.70;;
57057;SDS011;55017;52.848;6.748;2022-11-15T00:05:24;141.60;;;135.50;;
57057;SDS011;55017;52.848;6.748;2022-11-15T00:07:50;150.20;;;143.85;;
57057;SDS011;55017;52.848;6.748;2022-11-15T00:10:16;145.18;;;138.98;;
57057;SDS011;55017;52.848;6.748;2022-11-15T00:12:42;144.80;;;138.75;;
57057;SDS011;55017;52.848;6.748;2022-11-15T00:15:07;144.13;;;137.85;;
57057;SDS011;55017;52.848;6.748;2022-11-15T00:17:33;145.05;;;138.55;;
57057;SDS011;55017;52.848;6.748;2022-11-15T00:19:59;138.57;;;132.85;;
57057;SDS011;55017;52.848;6.748;2022-11-15T00:22:24;141.25;;;135.00;;
57057;SDS011;55017;52.848;6.748;2022-11-15T00:24:55;142.27;;;136.38;;
57057;SDS011;55017;52.848;6.748;2022-11-15T00:27:21;142.18;;;135.98;;
57057;SDS011;55017;52.848;6.748;2022-11-15T00:29:46;145.25;;;139.05;;
57057;SDS011;55017;52.848;6.748;2022-11-15T00:32:12;141.88;;;135.70;;
57057;SDS011;55017;52.848;6.748;2022-11-15T00:34:38;143.48;;;137.43;;
57057;SDS011;55017;52.848;6.748;2022-11-15T00:37:03;145.75;;;139.35;;
57057;SDS011;55017;52.848;6.748;2022-11-15T00:39:29;144.35;;;138.43;;
57057;SDS011;55017;52.848;6.748;2022-11-15T00:41:54;145.05;;;138.82;;
57057;SDS011;55017;52.848;6.748;2022-11-15T00:44:20;145.48;;;138.98;;
57057;SDS011;55017;52.848;6.748;2022-11-15T00:46:45;147.23;;;140.82;;
57057;SDS011;55017;52.848;6.748;2022-11-15T00:49:11;143.77;;;137.45;;
57057;SDS011;55017;52.848;6.748;2022-11-15T00:51:37;145.48;;;139.30;;
57057;SDS011;55017;52.848;6.748;2022-11-15T00:54:02;143.57;;;137.38;;
57057;SDS011;55017;52.848;6.748;2022-11-15T00:56:28;149.60;;;143.10;;
57057;SDS011;55017;52.848;6.748;2022-11-15T00:58:54;143.35;;;137.15;;
57057;SDS011;55017;52.848;6.748;2022-11-15T01:01:21;140.85;;;134.55;;
57057;SDS011;55017;52.848;6.748;2022-11-15T01:03:46;147.38;;;140.90;;
57057;SDS011;55017;52.848;6.748;2022-11-15T01:06:12;149.18;;;142.77;;
57057;SDS011;55017;52.848;6.748;2022-11-15T01:08:38;142.13;;;135.88;;
57057;SDS011;55017;52.848;6.748;2022-11-15T01:11:06;141.52;;;135.45;;
57057;SDS011;55017;52.848;6.748;2022-11-15T01:13:34;142.45;;;136.15;;
57057;SDS011;55017;52.848;6.748;2022-11-15T01:18:36;144.88;;;138.60;;
57057;SDS011;55017;52.848;6.748;2022-11-15T01:21:11;145.05;;;138.80;;
57057;SDS011;55017;52.848;6.748;2022-11-15T01:23:39;146.07;;;139.68;;
57057;SDS011;55017;52.848;6.748;2022-11-15T01:26:06;145.63;;;139.20;;
57057;SDS011;55017;52.848;6.748;2022-11-15T01:28:35;143.07;;;136.60;;
57057;SDS011;55017;52.848;6.748;2022-11-15T01:31:02;144.82;;;138.52;;
57057;SDS011;55017;52.848;6.748;2022-11-15T01:33:29;144.32;;;137.82;;
57057;SDS011;55017;52.848;6.748;2022-11-15T01:35:55;147.00;;;140.35;;
57057;SDS011;55017;52.848;6.748;2022-11-15T01:38:21;146.15;;;139.60;;
57057;SDS011;55017;52.848;6.748;2022-11-15T01:40:47;145.85;;;139.27;;
57057;SDS011;55017;52.848;6.748;2022-11-15T01:43:23;146.18;;;139.52;;
57057;SDS011;55017;52.848;6.748;2022-11-15T01:46:36;144.48;;;138.30;;
57057;SDS011;55017;52.848;6.748;2022-11-15T01:48:56;144.50;;;138.15;;
57057;SDS011;55017;52.848;6.748;2022-11-15T01:51:25;143.18;;;136.88;;
57057;SDS011;55017;52.848;6.748;2022-11-15T01:53:55;146.35;;;139.95;;
57057;SDS011;55017;52.848;6.748;2022-11-15T01:56:27;146.43;;;139.82;;
57057;SDS011;55017;52.848;6.748;2022-11-15T01:58:56;143.40;;;137.00;;
57057;SDS011;55017;52.848;6.748;2022-11-15T02:01:25;139.00;;;133.10;;
57057;SDS011;55017;52.848;6.748;2022-11-15T02:03:57;142.20;;;136.10;;
57057;SDS011;55017;52.848;6.748;2022-11-15T02:06:26;142.02;;;135.88;;
57057;SDS011;55017;52.848;6.748;2022-11-15T02:08:52;145.80;;;139.30;;
57057;SDS011;55017;52.848;6.748;2022-11-15T02:11:19;146.35;;;139.98;;
57057;SDS011;55017;52.848;6.748;2022-11-15T02:13:44;148.57;;;141.88;;
57057;SDS011;55017;52.848;6.748;2022-11-15T02:22:01;149.45;;;142.75;;
57057;SDS011;55017;52.848;6.748;2022-11-15T02:24:50;145.90;;;139.48;;
57057;SDS011;55017;52.848;6.748;2022-11-15T02:35:30;147.70;;;140.80;;
57057;SDS011;55017;52.848;6.748;2022-11-15T02:40:59;146.10;;;139.40;;
57057;SDS011;55017;52.848;6.748;2022-11-15T02:43:36;145.95;;;139.20;;
57057;SDS011;55017;52.848;6.748;2022-11-15T02:46:35;146.60;;;139.45;;
57057;SDS011;55017;52.848;6.748;2022-11-15T02:49:35;148.32;;;141.32;;
57057;SDS011;55017;52.848;6.748;2022-11-15T02:52:02;148.55;;;141.23;;
57057;SDS011;55017;52.848;6.748;2022-11-15T02:54:29;151.02;;;143.70;;
57057;SDS011;55017;52.848;6.748;2022-11-15T02:57:07;147.63;;;140.43;;
57057;SDS011;55017;52.848;6.748;2022-11-15T03:05:08;148.10;;;140.38;;
57057;SDS011;55017;52.848;6.748;2022-11-15T03:07:49;159.70;;;150.77;;
57057;SDS011;55017;52.848;6.748;2022-11-15T03:12:54;154.65;;;146.18;;
57057;SDS011;55017;52.848;6.748;2022-11-15T03:15:40;150.50;;;142.73;;
57057;SDS011;55017;52.848;6.748;2022-11-15T03:18:19;152.25;;;144.23;;
57057;SDS011;55017;52.848;6.748;2022-11-15T03:20:53;154.70;;;146.80;;
57057;SDS011;55017;52.848;6.748;2022-11-15T03:23:20;156.77;;;148.73;;
57057;SDS011;55017;52.848;6.748;2022-11-15T03:25:47;151.90;;;143.88;;
57057;SDS011;55017;52.848;6.748;2022-11-15T03:28:20;152.55;;;144.32;;
57057;SDS011;55017;52.848;6.748;2022-11-15T03:30:50;158.93;;;150.10;;
57057;SDS011;55017;52.848;6.748;2022-11-15T03:33:19;157.40;;;148.90;;
57057;SDS011;55017;52.848;6.748;2022-11-15T03:35:46;156.30;;;147.60;;
57057;SDS011;55017;52.848;6.748;2022-11-15T03:38:26;155.73;;;147.10;;
57057;SDS011;55017;52.848;6.748;2022-11-15T03:40:56;153.50;;;145.02;;
57057;SDS011;55017;52.848;6.748;2022-11-15T03:43:29;162.15;;;153.05;;
57057;SDS011;55017;52.848;6.748;2022-11-15T03:46:16;163.75;;;154.27;;
57057;SDS011;55017;52.848;6.748;2022-11-15T03:49:05;160.77;;;151.57;;
57057;SDS011;55017;52.848;6.748;2022-11-15T03:51:34;159.02;;;150.27;;
57057;SDS011;55017;52.848;6.748;2022-11-15T03:54:02;158.73;;;149.40;;
57057;SDS011;55017;52.848;6.748;2022-11-15T03:58:55;160.52;;;151.27;;
57057;SDS011;55017;52.848;6.748;2022-11-15T04:01:20;162.85;;;153.00;;
57057;SDS011;55017;52.848;6.748;2022-11-15T04:03:46;162.38;;;152.27;;
57057;SDS011;55017;52.848;6.748;2022-11-15T04:06:11;163.52;;;153.93;;
57057;SDS011;55017;52.848;6.748;2022-11-15T04:08:37;160.38;;;150.32;;
57057;SDS011;55017;52.848;6.748;2022-11-15T04:11:03;165.55;;;155.70;;
57057;SDS011;55017;52.848;6.748;2022-11-15T04:13:28;161.98;;;152.63;;
57057;SDS011;55017;52.848;6.748;2022-11-15T04:15:54;164.75;;;154.55;;
57057;SDS011;55017;52.848;6.748;2022-11-15T04:18:19;170.63;;;160.45;;
57057;SDS011;55017;52.848;6.748;2022-11-15T04:20:45;159.70;;;150.18;;
57057;SDS011;55017;52.848;6.748;2022-11-15T04:23:29;165.43;;;154.93;;
57057;SDS011;55017;52.848;6.748;2022-11-15T04:26:30;161.93;;;152.10;;
57057;SDS011;55017;52.848;6.748;2022-11-15T04:28:56;165.20;;;154.40;;
57057;SDS011;55017;52.848;6.748;2022-11-15T04:31:40;167.02;;;156.48;;
57057;SDS011;55017;52.848;6.748;2022-11-15T04:34:06;165.32;;;154.95;;
57057;SDS011;55017;52.848;6.748;2022-11-15T04:36:32;165.70;;;154.85;;
57057;SDS011;55017;52.848;6.748;2022-11-15T04:39:16;165.07;;;154.90;;
57057;SDS011;55017;52.848;6.748;2022-11-15T04:41:42;168.75;;;157.45;;
57057;SDS011;55017;52.848;6.748;2022-11-15T04:44:07;163.20;;;152.63;;
57057;SDS011;55017;52.848;6.748;2022-11-15T04:46:33;169.38;;;158.07;;
57057;SDS011;55017;52.848;6.748;2022-11-15T04:48:59;167.93;;;156.93;;
57057;SDS011;55017;52.848;6.748;2022-11-15T04:51:24;171.02;;;159.43;;
57057;SDS011;55017;52.848;6.748;2022-11-15T04:53:50;163.32;;;153.18;;
57057;SDS011;55017;52.848;6.748;2022-11-15T04:56:16;166.35;;;155.55;;
57057;SDS011;55017;52.848;6.748;2022-11-15T04:58:41;167.77;;;157.02;;
57057;SDS011;55017;52.848;6.748;2022-11-15T05:01:10;168.18;;;157.38;;
57057;SDS011;55017;52.848;6.748;2022-11-15T05:03:39;165.45;;;155.48;;
57057;SDS011;55017;52.848;6.748;2022-11-15T05:06:27;165.80;;;155.60;;
57057;SDS011;55017;52.848;6.748;2022-11-15T05:08:53;167.25;;;157.10;;
57057;SDS011;55017;52.848;6.748;2022-11-15T05:11:19;167.13;;;156.65;;
57057;SDS011;55017;52.848;6.748;2022-11-15T05:13:45;166.55;;;156.27;;
57057;SDS011;55017;52.848;6.748;2022-11-15T05:16:11;170.52;;;159.73;;
57057;SDS011;55017;52.848;6.748;2022-11-15T05:18:37;170.88;;;159.88;;
57057;SDS011;55017;52.848;6.748;2022-11-15T05:21:12;170.63;;;160.00;;
57057;SDS011;55017;52.848;6.748;2022-11-15T05:23:39;163.00;;;152.60;;
57057;SDS011;55017;52.848;6.748;2022-11-15T05:26:06;163.73;;;153.63;;
57057;SDS011;55017;52.848;6.748;2022-11-15T05:28:32;168.60;;;158.00;;
57057;SDS011;55017;52.848;6.748;2022-11-15T05:31:09;164.55;;;154.40;;
57057;SDS011;55017;52.848;6.748;2022-11-15T05:33:37;159.85;;;150.40;;
57057;SDS011;55017;52.848;6.748;2022-11-15T05:36:05;166.38;;;156.30;;
57057;SDS011;55017;52.848;6.748;2022-11-15T05:38:38;160.52;;;150.70;;
57057;SDS011;55017;52.848;6.748;2022-11-15T05:41:04;162.00;;;151.93;;
57057;SDS011;55017;52.848;6.748;2022-11-15T05:43:30;162.55;;;152.68;;
57057;SDS011;55017;52.848;6.748;2022-11-15T05:46:00;161.43;;;151.85;;
57057;SDS011;55017;52.848;6.748;2022-11-15T05:48:26;162.95;;;153.77;;
57057;SDS011;55017;52.848;6.748;2022-11-15T05:50:52;160.13;;;150.73;;
57057;SDS011;55017;52.848;6.748;2022-11-15T05:53:18;160.13;;;151.25;;
57057;SDS011;55017;52.848;6.748;2022-11-15T05:55:46;157.88;;;149.02;;
57057;SDS011;55017;52.848;6.748;2022-11-15T05:58:12;159.30;;;150.20;;
57057;SDS011;55017;52.848;6.748;2022-11-15T06:00:37;160.90;;;151.60;;
57057;SDS011;55017;52.848;6.748;2022-11-15T06:03:03;159.85;;;150.85;;
57057;SDS011;55017;52.848;6.748;2022-11-15T06:05:29;156.82;;;148.30;;
57057;SDS011;55017;52.848;6.748;2022-11-15T06:07:57;157.25;;;148.85;;
57057;SDS011;55017;52.848;6.748;2022-11-15T06:10:24;156.20;;;147.50;;
57057;SDS011;55017;52.848;6.748;2022-11-15T06:12:59;153.77;;;145.30;;
57057;SDS011;55017;52.848;6.748;2022-11-15T06:15:26;158.82;;;150.05;;
57057;SDS011;55017;52.848;6.748;2022-11-15T06:17:55;154.85;;;146.13;;
57057;SDS011;55017;52.848;6.748;2022-11-15T06:20:22;154.57;;;146.20;;
57057;SDS011;55017;52.848;6.748;2022-11-15T06:22:59;157.85;;;149.38;;
57057;SDS011;55017;52.848;6.748;2022-11-15T06:25:27;153.90;;;145.50;;
57057;SDS011;55017;52.848;6.748;2022-11-15T06:27:53;156.02;;;147.75;;
57057;SDS011;55017;52.848;6.748;2022-11-15T06:30:20;151.35;;;143.45;;
57057;SDS011;55017;52.848;6.748;2022-11-15T06:32:46;151.25;;;143.25;;
57057;SDS011;55017;52.848;6.748;2022-11-15T06:35:11;150.60;;;142.90;;
57057;SDS011;55017;52.848;6.748;2022-11-15T06:37:37;154.82;;;146.70;;
57057;SDS011;55017;52.848;6.748;2022-11-15T06:40:03;149.60;;;142.27;;
57057;SDS011;55017;52.848;6.748;2022-11-15T06:42:29;152.38;;;144.73;;
57057;SDS011;55017;52.848;6.748;2022-11-15T06:44:54;149.90;;;142.20;;
57057;SDS011;55017;52.848;6.748;2022-11-15T06:47:20;152.80;;;145.35;;
57057;SDS011;55017;52.848;6.748;2022-11-15T06:49:45;150.30;;;142.27;;
57057;SDS011;55017;52.848;6.748;2022-11-15T06:52:11;151.05;;;143.60;;
57057;SDS011;55017;52.848;6.748;2022-11-15T06:54:37;150.73;;;143.30;;
57057;SDS011;55017;52.848;6.748;2022-11-15T06:57:03;147.48;;;140.32;;
57057;SDS011;55017;52.848;6.748;2022-11-15T06:59:29;150.70;;;143.23;;
57057;SDS011;55017;52.848;6.748;2022-11-15T07:01:55;150.52;;;143.27;;
57057;SDS011;55017;52.848;6.748;2022-11-15T07:04:21;147.93;;;140.98;;
57057;SDS011;55017;52.848;6.748;2022-11-15T07:06:46;146.98;;;139.95;;
57057;SDS011;55017;52.848;6.748;2022-11-15T07:09:13;146.05;;;139.32;;
57057;SDS011;55017;52.848;6.748;2022-11-15T07:11:39;148.10;;;141.10;;
57057;SDS011;55017;52.848;6.748;2022-11-15T07:14:04;144.10;;;137.48;;
57057;SDS011;55017;52.848;6.748;2022-11-15T07:16:30;148.18;;;141.20;;
57057;SDS011;55017;52.848;6.748;2022-11-15T07:18:55;150.40;;;143.38;;
57057;SDS011;55017;52.848;6.748;2022-11-15T07:21:21;152.27;;;144.95;;
57057;SDS011;55017;52.848;6.748;2022-11-15T07:23:47;147.70;;;140.65;;
57057;SDS011;55017;52.848;6.748;2022-11-15T07:26:12;145.50;;;138.73;;
57057;SDS011;55017;52.848;6.748;2022-11-15T07:28:38;145.30;;;138.57;;
57057;SDS011;55017;52.848;6.748;2022-11-15T07:31:05;142.80;;;136.20;;
57057;SDS011;55017;52.848;6.748;2022-11-15T07:33:32;145.90;;;139.40;;
57057;SDS011;55017;52.848;6.748;2022-11-15T07:36:02;152.73;;;145.85;;
57057;SDS011;55017;52.848;6.748;2022-11-15T07:38:28;145.90;;;138.95;;
57057;SDS011;55017;52.848;6.748;2022-11-15T07:40:58;149.70;;;142.82;;
57057;SDS011;55017;52.848;6.748;2022-11-15T07:43:28;147.45;;;140.57;;
57057;SDS011;55017;52.848;6.748;2022-11-15T07:45:54;145.07;;;138.38;;
57057;SDS011;55017;52.848;6.748;2022-11-15T07:48:21;148.18;;;141.35;;
57057;SDS011;55017;52.848;6.748;2022-11-15T07:50:47;144.88;;;138.15;;
57057;SDS011;55017;52.848;6.748;2022-11-15T07:53:13;148.10;;;141.40;;
57057;SDS011;55017;52.848;6.748;2022-11-15T07:55:39;149.10;;;142.23;;
57057;SDS011;55017;52.848;6.748;2022-11-15T07:58:07;149.15;;;142.38;;
57057;SDS011;55017;52.848;6.748;2022-11-15T08:00:35;143.48;;;136.75;;
57057;SDS011;55017;52.848;6.748;2022-11-15T08:03:03;147.02;;;140.60;;
57057;SDS011;55017;52.848;6.748;2022-11-15T08:05:30;141.53;;;135.13;;
57057;SDS011;55017;52.848;6.748;2022-11-15T08:07:56;149.02;;;142.15;;
57057;SDS011;55017;52.848;6.748;2022-11-15T08:10:21;144.52;;;138.10;;
57057;SDS011;55017;52.848;6.748;2022-11-15T08:12:47;142.95;;;136.55;;
57057;SDS011;55017;52.848;6.748;2022-11-15T08:15:13;148.73;;;141.80;;
57057;SDS011;55017;52.848;6.748;2022-11-15T08:17:39;146.07;;;139.55;;
57057;SDS011;55017;52.848;6.748;2022-11-15T08:20:05;145.70;;;139.18;;
57057;SDS011;55017;52.848;6.748;2022-11-15T08:22:30;142.98;;;136.52;;
57057;SDS011;55017;52.848;6.748;2022-11-15T08:24:58;149.45;;;143.05;;
57057;SDS011;55017;52.848;6.748;2022-11-15T08:27:23;146.35;;;139.50;;
57057;SDS011;55017;52.848;6.748;2022-11-15T08:29:49;144.93;;;138.35;;
57057;SDS011;55017;52.848;6.748;2022-11-15T08:32:15;144.20;;;137.73;;
57057;SDS011;55017;52.848;6.748;2022-11-15T08:34:42;148.48;;;141.88;;
57057;SDS011;55017;52.848;6.748;2022-11-15T08:37:08;144.43;;;138.02;;
57057;SDS011;55017;52.848;6.748;2022-11-15T08:39:33;146.85;;;140.25;;
57057;SDS011;55017;52.848;6.748;2022-11-15T08:41:59;142.18;;;135.73;;
57057;SDS011;55017;52.848;6.748;2022-11-15T08:44:25;147.23;;;140.40;;
57057;SDS011;55017;52.848;6.748;2022-11-15T08:46:50;142.40;;;135.98;;
57057;SDS011;55017;52.848;6.748;2022-11-15T08:49:16;145.30;;;138.77;;
57057;SDS011;55017;52.848;6.748;2022-11-15T08:51:42;142.60;;;136.30;;
57057;SDS011;55017;52.848;6.748;2022-11-15T08:54:07;142.15;;;135.60;;
57057;SDS011;55017;52.848;6.748;2022-11-15T08:56:33;144.35;;;137.73;;
57057;SDS011;55017;52.848;6.748;2022-11-15T08:58:58;146.25;;;139.80;;
57057;SDS011;55017;52.848;6.748;2022-11-15T09:01:24;146.45;;;140.00;;
57057;SDS011;55017;52.848;6.748;2022-11-15T09:03:50;146.98;;;140.52;;
57057;SDS011;55017;52.848;6.748;2022-11-15T09:06:16;146.10;;;139.75;;
57057;SDS011;55017;52.848;6.748;2022-11-15T09:08:41;143.32;;;137.05;;
57057;SDS011;55017;52.848;6.748;2022-11-15T09:11:07;142.77;;;136.55;;
57057;SDS011;55017;52.848;6.748;2022-11-15T09:13:34;143.05;;;136.63;;
57057;SDS011;55017;52.848;6.748;2022-11-15T09:16:03;145.43;;;139.25;;
57057;SDS011;55017;52.848;6.748;2022-11-15T09:18:29;140.80;;;134.98;;
57057;SDS011;55017;52.848;6.748;2022-11-15T09:20:55;145.27;;;139.02;;
57057;SDS011;55017;52.848;6.748;2022-11-15T09:23:22;146.60;;;140.52;;
57057;SDS011;55017;52.848;6.748;2022-11-15T09:25:47;141.93;;;135.90;;
57057;SDS011;55017;52.848;6.748;2022-11-15T09:28:13;138.88;;;133.13;;
57057;SDS011;55017;52.848;6.748;2022-11-15T09:30:38;143.45;;;137.13;;
57057;SDS011;55017;52.848;6.748;2022-11-15T09:33:11;141.80;;;135.73;;
57057;SDS011;55017;52.848;6.748;2022-11-15T09:35:37;140.70;;;134.82;;
57057;SDS011;55017;52.848;6.748;2022-11-15T09:38:03;141.48;;;135.63;;
57057;SDS011;55017;52.848;6.748;2022-11-15T09:40:30;138.98;;;133.40;;
57057;SDS011;55017;52.848;6.748;2022-11-15T09:51:30;140.75;;;134.95;;
57057;SDS011;55017;52.848;6.748;2022-11-15T09:56:43;144.85;;;138.73;;
57057;SDS011;55017;52.848;6.748;2022-11-15T10:04:39;144.23;;;138.20;;
57057;SDS011;55017;52.848;6.748;2022-11-15T10:07:17;147.27;;;140.73;;
57057;SDS011;55017;52.848;6.748;2022-11-15T10:12:20;147.02;;;140.30;;
57057;SDS011;55017;52.848;6.748;2022-11-15T10:14:46;148.80;;;142.30;;
57057;SDS011;55017;52.848;6.748;2022-11-15T10:17:21;146.10;;;139.45;;
57057;SDS011;55017;52.848;6.748;2022-11-15T10:22:43;148.73;;;141.95;;
57057;SDS011;55017;52.848;6.748;2022-11-15T10:25:30;149.88;;;142.93;;
57057;SDS011;55017;52.848;6.748;2022-11-15T10:28:09;153.75;;;146.65;;
57057;SDS011;55017;52.848;6.748;2022-11-15T10:30:41;146.90;;;140.30;;
57057;SDS011;55017;52.848;6.748;2022-11-15T10:33:10;150.07;;;143.10;;
57057;SDS011;55017;52.848;6.748;2022-11-15T10:35:54;146.57;;;139.98;;
57057;SDS011;55017;52.848;6.748;2022-11-15T10:41:16;146.18;;;139.77;;
57057;SDS011;55017;52.848;6.748;2022-11-15T10:43:43;143.98;;;137.68;;
57057;SDS011;55017;52.848;6.748;2022-11-15T10:46:23;143.30;;;136.85;;
57057;SDS011;55017;52.848;6.748;2022-11-15T10:48:49;143.57;;;137.48;;
57057;SDS011;55017;52.848;6.748;2022-11-15T10:51:19;142.10;;;136.02;;
57057;SDS011;55017;52.848;6.748;2022-11-15T10:53:51;137.52;;;131.57;;
57057;SDS011;55017;52.848;6.748;2022-11-15T10:56:17;137.88;;;132.18;;
57057;SDS011;55017;52.848;6.748;2022-11-15T10:58:51;138.73;;;132.98;;
57057;SDS011;55017;52.848;6.748;2022-11-15T11:01:21;136.93;;;131.45;;
57057;SDS011;55017;52.848;6.748;2022-11-15T11:03:59;134.88;;;129.65;;
57057;SDS011;55017;52.848;6.748;2022-11-15T11:06:29;135.40;;;130.07;;
57057;SDS011;55017;52.848;6.748;2022-11-15T11:08:57;132.85;;;127.65;;
57057;SDS011;55017;52.848;6.748;2022-11-15T11:11:24;132.30;;;127.20;;
57057;SDS011;55017;52.848;6.748;2022-11-15T11:17:06;124.15;;;119.65;;
57057;SDS011;55017;52.848;6.748;2022-11-15T11:19:56;120.55;;;116.32;;
57057;SDS011;55017;52.848;6.748;2022-11-15T11:22:34;119.63;;;115.30;;
57057;SDS011;55017;52.848;6.748;2022-11-15T11:25:18;116.78;;;112.75;;
57057;SDS011;55017;52.848;6.748;2022-11-15T11:39:38;115.22;;;111.32;;
57057;SDS011;55017;52.848;6.748;2022-11-15T11:48:40;115.32;;;111.22;;
57057;SDS011;55017;52.848;6.748;2022-11-15T11:50:39;111.60;;;107.80;;
57057;SDS011;55017;52.848;6.748;2022-11-15T11:53:27;107.97;;;104.28;;
57057;SDS011;55017;52.848;6.748;2022-11-15T11:55:58;110.63;;;106.88;;
57057;SDS011;55017;52.848;6.748;2022-11-15T11:58:34;108.15;;;104.22;;
57057;SDS011;55017;52.848;6.748;2022-11-15T12:06:33;109.88;;;106.00;;
57057;SDS011;55017;52.848;6.748;2022-11-15T12:09:21;110.47;;;106.57;;
57057;SDS011;55017;52.848;6.748;2022-11-15T12:12:05;112.95;;;109.03;;
57057;SDS011;55017;52.848;6.748;2022-11-15T12:17:34;117.90;;;113.57;;
57057;SDS011;55017;52.848;6.748;2022-11-15T12:20:12;114.38;;;110.13;;
57057;SDS011;55017;52.848;6.748;2022-11-15T12:22:43;114.63;;;110.53;;
57057;SDS011;55017;52.848;6.748;2022-11-15T12:27:49;112.93;;;108.90;;
57057;SDS011;55017;52.848;6.748;2022-11-15T12:30:25;112.70;;;108.72;;
57057;SDS011;55017;52.848;6.748;2022-11-15T12:33:02;113.18;;;109.30;;
57057;SDS011;55017;52.848;6.748;2022-11-15T12:35:38;113.78;;;109.97;;
57057;SDS011;55017;52.848;6.748;2022-11-15T12:43:42;111.45;;;107.72;;
57057;SDS011;55017;52.848;6.748;2022-11-15T12:46:12;110.72;;;107.00;;
57057;SDS011;55017;52.848;6.748;2022-11-15T12:48:46;112.05;;;108.25;;
57057;SDS011;55017;52.848;6.748;2022-11-15T12:51:14;113.35;;;109.45;;
57057;SDS011;55017;52.848;6.748;2022-11-15T12:53:39;113.15;;;109.25;;
57057;SDS011;55017;52.848;6.748;2022-11-15T12:58:53;112.00;;;108.30;;
57057;SDS011;55017;52.848;6.748;2022-11-15T13:07:00;110.68;;;107.03;;
57057;SDS011;55017;52.848;6.748;2022-11-15T13:12:03;113.28;;;109.47;;
57057;SDS011;55017;52.848;6.748;2022-11-15T13:28:38;111.78;;;108.07;;
57057;SDS011;55017;52.848;6.748;2022-11-15T13:31:18;114.68;;;110.80;;
57057;SDS011;55017;52.848;6.748;2022-11-15T13:36:18;114.65;;;110.93;;
57057;SDS011;55017;52.848;6.748;2022-11-15T13:41:23;115.25;;;111.55;;
57057;SDS011;55017;52.848;6.748;2022-11-15T13:44:00;113.07;;;109.38;;
57057;SDS011;55017;52.848;6.748;2022-11-15T13:46:33;113.47;;;109.85;;
57057;SDS011;55017;52.848;6.748;2022-11-15T13:49:00;113.63;;;109.93;;
57057;SDS011;55017;52.848;6.748;2022-11-15T13:51:47;113.15;;;109.28;;
57057;SDS011;55017;52.848;6.748;2022-11-15T13:54:20;109.78;;;106.28;;
57057;SDS011;55017;52.848;6.748;2022-11-15T13:59:34;115.75;;;111.95;;
57057;SDS011;55017;52.848;6.748;2022-11-15T14:02:03;110.03;;;106.43;;
57057;SDS011;55017;52.848;6.748;2022-11-15T14:04:53;115.80;;;112.10;;
57057;SDS011;55017;52.848;6.748;2022-11-15T14:07:23;113.70;;;109.90;;
57057;SDS011;55017;52.848;6.748;2022-11-15T14:09:50;114.72;;;110.85;;
57057;SDS011;55017;52.848;6.748;2022-11-15T14:12:24;113.35;;;109.78;;
57057;SDS011;55017;52.848;6.748;2022-11-15T14:14:58;112.97;;;109.15;;
57057;SDS011;55017;52.848;6.748;2022-11-15T14:17:42;113.50;;;109.72;;
57057;SDS011;55017;52.848;6.748;2022-11-15T14:22:57;113.00;;;109.30;;
57057;SDS011;55017;52.848;6.748;2022-11-15T14:25:31;113.60;;;109.90;;
57057;SDS011;55017;52.848;6.748;2022-11-15T14:28:12;113.90;;;110.20;;
57057;SDS011;55017;52.848;6.748;2022-11-15T14:30:52;114.40;;;110.70;;
57057;SDS011;55017;52.848;6.748;2022-11-15T14:35:57;117.22;;;113.38;;
57057;SDS011;55017;52.848;6.748;2022-11-15T14:38:27;114.78;;;111.05;;
57057;SDS011;55017;52.848;6.748;2022-11-15T14:40:52;116.80;;;113.00;;
57057;SDS011;55017;52.848;6.748;2022-11-15T14:43:19;115.60;;;111.82;;
57057;SDS011;55017;52.848;6.748;2022-11-15T14:45:45;114.65;;;110.85;;
57057;SDS011;55017;52.848;6.748;2022-11-15T14:48:11;116.63;;;112.82;;
57057;SDS011;55017;52.848;6.748;2022-11-15T14:50:36;119.03;;;115.15;;
57057;SDS011;55017;52.848;6.748;2022-11-15T14:53:02;117.70;;;113.90;;
57057;SDS011;55017;52.848;6.748;2022-11-15T14:55:33;119.85;;;115.75;;
57057;SDS011;55017;52.848;6.748;2022-11-15T14:58:01;117.15;;;113.35;;
57057;SDS011;55017;52.848;6.748;2022-11-15T15:00:31;117.85;;;114.05;;
57057;SDS011;55017;52.848;6.748;2022-11-15T15:02:57;114.57;;;110.78;;
57057;SDS011;55017;52.848;6.748;2022-11-15T15:08:15;122.18;;;118.20;;
57057;SDS011;55017;52.848;6.748;2022-11-15T15:10:41;118.85;;;114.82;;
57057;SDS011;55017;52.848;6.748;2022-11-15T15:13:14;118.95;;;114.97;;
57057;SDS011;55017;52.848;6.748;2022-11-15T15:15:45;121.47;;;117.50;;
57057;SDS011;55017;52.848;6.748;2022-11-15T15:18:11;117.20;;;113.40;;
57057;SDS011;55017;52.848;6.748;2022-11-15T15:20:38;118.38;;;114.35;;
57057;SDS011;55017;52.848;6.748;2022-11-15T15:23:08;120.22;;;116.20;;
57057;SDS011;55017;52.848;6.748;2022-11-15T15:25:43;121.03;;;117.03;;
57057;SDS011;55017;52.848;6.748;2022-11-15T15:28:10;120.57;;;116.57;;
57057;SDS011;55017;52.848;6.748;2022-11-15T15:30:36;119.55;;;115.63;;
57057;SDS011;55017;52.848;6.748;2022-11-15T15:33:02;116.47;;;112.68;;
57057;SDS011;55017;52.848;6.748;2022-11-15T15:35:29;119.18;;;115.28;;
57057;SDS011;55017;52.848;6.748;2022-11-15T15:37:57;118.53;;;114.55;;
57057;SDS011;55017;52.848;6.748;2022-11-15T15:40:24;122.40;;;118.32;;
57057;SDS011;55017;52.848;6.748;2022-11-15T15:42:50;121.13;;;117.13;;
57057;SDS011;55017;52.848;6.748;2022-11-15T15:45:16;119.10;;;115.20;;
57057;SDS011;55017;52.848;6.748;2022-11-15T15:47:43;120.68;;;116.78;;
57057;SDS011;55017;52.848;6.748;2022-11-15T15:52:46;117.32;;;113.53;;
57057;SDS011;55017;52.848;6.748;2022-11-15T15:55:11;120.88;;;116.97;;
57057;SDS011;55017;52.848;6.748;2022-11-15T15:57:37;119.03;;;115.13;;
57057;SDS011;55017;52.848;6.748;2022-11-15T16:00:03;117.00;;;113.13;;
57057;SDS011;55017;52.848;6.748;2022-11-15T16:02:29;120.20;;;116.30;;
57057;SDS011;55017;52.848;6.748;2022-11-15T16:04:56;121.53;;;117.53;;
57057;SDS011;55017;52.848;6.748;2022-11-15T16:07:22;123.07;;;119.03;;
57057;SDS011;55017;52.848;6.748;2022-11-15T16:12:26;123.18;;;119.13;;
57057;SDS011;55017;52.848;6.748;2022-11-15T16:14:55;118.35;;;114.55;;
57057;SDS011;55017;52.848;6.748;2022-11-15T16:17:21;122.00;;;118.10;;
57057;SDS011;55017;52.848;6.748;2022-11-15T16:19:50;119.38;;;115.57;;
57057;SDS011;55017;52.848;6.748;2022-11-15T16:22:16;120.20;;;116.30;;
57057;SDS011;55017;52.848;6.748;2022-11-15T16:24:41;118.90;;;114.93;;
57057;SDS011;55017;52.848;6.748;2022-11-15T16:27:14;119.45;;;115.47;;